Time;durP1;ratioP1;P1;durP2;ratioP2;P2;SDS_P1;SDS_P2;PMS_P1;PMS_P2;Temp;Humidity;BMP_temperature;BMP_pressure;BME280_temperature;BME280_humidity;BME280_pressure;Samples;Min_cycle;Max_cycle;Signal;HPM_P1;HPM_P2
2023/12/01 00:00:53;;;;;;;21.63;11.57;;;3.20;99.90;;;3.33;95.62;99049.47;4884358;28;24445;-69
2023/12/01 00:03:15;;;;;;;23.08;12.40;;;3.20;99.90;;;3.34;95.69;99027.94;4889650;28;24438;-69
2023/12/01 00:05:37;;;;;;;23.05;12.50;;;3.20;99.90;;;3.27;95.91;99024.09;4894736;28;24815;-69
2023/12/01 00:07:59;;;;;;;21.58;12.20;;;3.20;99.90;;;3.25;95.89;99023.38;4896158;28;20765;-69
2023/12/01 00:10:21;;;;;;;23.40;12.25;;;3.20;99.90;;;3.18;96.26;99029.88;4894023;28;24489;-69
2023/12/01 00:12:43;;;;;;;24.20;12.80;;;3.20;99.90;;;3.16;96.04;99034.31;4896496;28;24433;-69
2023/12/01 00:15:06;;;;;;;21.98;11.60;;;3.10;99.90;;;3.16;96.04;99036.88;4893737;28;24450;-69
2023/12/01 00:17:27;;;;;;;20.47;12.27;;;3.10;99.90;;;3.20;95.93;99042.63;4896470;28;25006;-71
2023/12/01 00:19:49;;;;;;;28.50;13.45;;;3.10;99.90;;;3.22;96.21;99038.22;4889915;28;24513;-69
2023/12/01 00:22:11;;;;;;;22.92;12.60;;;3.10;99.90;;;3.24;96.40;99041.53;4887595;28;24443;-69
2023/12/01 00:24:33;;;;;;;23.02;12.32;;;3.20;99.90;;;3.25;96.59;99046.56;4884617;28;24867;-70
2023/12/01 00:26:55;;;;;;;21.45;11.90;;;3.20;99.90;;;3.24;96.81;99051.84;4880298;28;24438;-70
2023/12/01 00:29:17;;;;;;;23.50;13.13;;;3.20;99.90;;;3.27;96.72;99055.03;4885038;28;24508;-69
2023/12/01 00:31:39;;;;;;;21.70;12.10;;;3.20;99.90;;;3.29;96.82;99047.19;4890623;28;24480;-70
2023/12/01 00:34:01;;;;;;;22.98;11.50;;;3.20;99.90;;;3.26;96.70;99045.63;4887178;28;24434;-70
2023/12/01 00:36:23;;;;;;;21.27;11.50;;;3.20;99.90;;;3.28;96.92;99056.66;4895336;28;24534;-70
2023/12/01 00:38:45;;;;;;;22.95;12.07;;;3.20;99.90;;;3.26;97.13;99058.53;4881807;28;24450;-70
2023/12/01 00:41:07;;;;;;;20.77;12.50;;;3.20;99.90;;;3.27;97.08;99046.47;4884487;28;24800;-70
2023/12/01 00:43:28;;;;;;;21.23;11.32;;;3.20;99.90;;;3.32;96.95;99037.50;4881420;28;25039;-70
2023/12/01 00:45:50;;;;;;;22.00;11.50;;;3.20;99.90;;;3.33;97.47;99053.78;4884911;28;24469;-70
2023/12/01 00:48:12;;;;;;;19.75;10.80;;;3.20;99.90;;;3.35;96.72;99055.34;4886948;28;24799;-71
2023/12/01 00:50:34;;;;;;;22.80;12.10;;;3.30;99.90;;;3.33;97.20;99048.63;4890187;28;21305;-70
2023/12/01 00:52:56;;;;;;;18.50;10.90;;;3.20;99.90;;;3.35;96.63;99049.34;4895574;28;24484;-70
2023/12/01 00:55:19;;;;;;;19.27;11.30;;;3.20;99.90;;;3.34;97.15;99038.22;4889260;28;24504;-70
2023/12/01 00:57:41;;;;;;;18.20;11.02;;;3.30;99.90;;;3.35;97.71;99055.34;4894242;28;24535;-70
2023/12/01 01:00:04;;;;;;;19.25;10.85;;;3.20;99.90;;;3.42;96.96;99058.31;4887652;28;24546;-72
2023/12/01 01:02:26;;;;;;;19.67;10.80;;;3.30;99.90;;;3.43;97.00;99041.94;4908405;28;25076;-71
2023/12/01 01:04:48;;;;;;;18.65;11.32;;;3.30;99.90;;;3.33;97.28;99040.91;4887553;28;24459;-69
2023/12/01 01:07:10;;;;;;;20.63;12.23;;;3.30;99.90;;;3.29;97.54;99047.19;4889679;28;24638;-70
2023/12/01 01:09:32;;;;;;;19.73;11.75;;;3.20;99.90;;;3.32;97.55;99047.00;4874921;28;24462;-72
2023/12/01 01:11:54;;;;;;;20.40;11.40;;;3.30;99.90;;;3.32;98.09;99036.69;4875631;28;20770;-72
2023/12/01 01:14:16;;;;;;;18.52;11.30;;;3.20;99.90;;;3.35;97.74;99046.78;4877272;28;24512;-70
2023/12/01 01:16:38;;;;;;;22.30;11.60;;;3.30;99.90;;;3.32;97.64;99062.47;4887493;28;24447;-69
2023/12/01 01:19:00;;;;;;;19.55;11.45;;;3.30;99.90;;;3.23;98.08;99065.66;4894609;28;24597;-70
2023/12/01 01:21:23;;;;;;;20.07;11.53;;;3.20;99.90;;;3.29;98.07;99068.63;4892617;28;24488;-69
2023/12/01 01:23:45;;;;;;;19.67;12.00;;;3.20;99.90;;;3.32;97.96;99057.31;4894449;28;25249;-70
2023/12/01 01:26:07;;;;;;;19.48;11.70;;;3.20;99.90;;;3.34;97.43;99050.28;4890329;28;24533;-72
2023/12/01 01:28:29;;;;;;;20.00;10.90;;;3.30;99.90;;;3.27;97.91;99043.88;4891961;28;24479;-70
2023/12/01 01:30:51;;;;;;;17.90;11.13;;;3.20;99.90;;;3.26;97.86;99042.25;4893286;28;24518;-71
2023/12/01 01:33:13;;;;;;;17.53;11.13;;;3.20;99.90;;;3.27;97.50;99038.72;4875045;28;24473;-70
2023/12/01 01:35:35;;;;;;;18.38;11.10;;;3.20;99.90;;;3.26;97.30;99043.06;4888954;28;24457;-70
2023/12/01 01:37:57;;;;;;;15.93;10.40;;;3.20;99.90;;;3.28;97.66;99059.25;4892926;28;24500;-70
2023/12/01 01:40:18;;;;;;;15.55;10.25;;;3.20;99.90;;;3.25;97.55;99061.22;4886040;28;25246;-70
2023/12/01 01:42:40;;;;;;;17.92;10.85;;;3.20;99.90;;;3.29;96.87;99067.81;4886100;28;24451;-68
2023/12/01 01:45:04;;;;;;;19.83;12.07;;;3.20;99.90;;;3.22;97.10;99077.69;4894553;28;24978;-70
2023/12/01 01:47:26;;;;;;;20.23;11.40;;;3.20;99.90;;;3.24;96.95;99078.41;4889975;28;24443;-70
2023/12/01 01:49:48;;;;;;;17.47;10.63;;;3.20;99.90;;;3.24;96.74;99073.25;4890490;28;24437;-70
2023/12/01 01:52:11;;;;;;;18.65;12.20;;;3.20;99.90;;;3.26;96.63;99083.50;4893898;28;24458;-69
2023/12/01 01:54:33;;;;;;;17.95;11.25;;;3.20;99.90;;;3.23;96.96;99086.25;4888964;28;24450;-71
2023/12/01 01:56:57;;;;;;;18.30;11.00;;;3.10;99.90;;;3.22;96.29;99094.91;4892074;28;20793;-71
2023/12/01 01:59:21;;;;;;;20.67;11.90;;;3.10;99.90;;;3.23;95.85;99094.00;4883081;28;20805;-71
2023/12/01 02:01:42;;;;;;;20.02;11.13;;;3.20;99.90;;;3.17;96.11;99096.03;4887162;28;24800;-70
2023/12/01 02:04:07;;;;;;;18.55;12.00;;;3.10;99.90;;;3.15;96.43;99097.88;4893659;28;24545;-70
2023/12/01 02:06:32;;;;;;;19.65;11.63;;;3.10;99.90;;;3.08;96.40;99112.13;4888552;28;24458;-72
2023/12/01 02:08:56;;;;;;;19.00;11.55;;;3.10;99.90;;;3.15;95.88;99107.41;4883289;28;24430;-70
2023/12/01 02:11:18;;;;;;;18.58;11.73;;;3.10;99.90;;;3.10;96.27;99118.00;4889651;28;24501;-69
2023/12/01 02:13:40;;;;;;;19.55;11.55;;;3.10;99.90;;;3.08;95.92;99119.84;4875495;28;25042;-70
2023/12/01 02:16:02;;;;;;;19.80;11.70;;;3.00;99.90;;;3.10;96.30;99119.75;4875581;28;24867;-70
2023/12/01 02:18:30;;;;;;;20.90;12.57;;;3.00;99.90;;;3.09;96.14;99116.34;4881173;28;24513;-69
2023/12/01 02:20:54;;;;;;;20.08;11.75;;;3.00;99.90;;;3.11;96.08;99101.59;4887196;28;24446;-71
2023/12/01 02:23:16;;;;;;;22.48;12.35;;;3.10;99.90;;;3.15;96.41;99123.66;4892451;28;24541;-70
2023/12/01 02:25:38;;;;;;;25.23;13.02;;;3.10;99.90;;;3.13;96.63;99117.78;4893613;28;24555;-69
2023/12/01 02:28:01;;;;;;;24.73;13.10;;;3.10;99.90;;;3.11;96.88;99121.38;4891177;28;24724;-69
2023/12/01 02:30:23;;;;;;;23.67;11.98;;;3.10;99.90;;;3.17;96.80;99109.88;4889752;28;24457;-71
2023/12/01 02:32:45;;;;;;;24.48;12.63;;;3.10;99.90;;;3.13;97.04;99110.06;4891622;28;24477;-70
2023/12/01 02:35:09;;;;;;;24.70;12.40;;;3.10;99.90;;;3.11;97.58;99117.06;4890389;28;24469;-70
2023/12/01 02:37:31;;;;;;;24.45;12.38;;;3.10;99.90;;;3.16;97.14;99124.50;4890227;28;24496;-71
2023/12/01 02:39:53;;;;;;;26.63;14.37;;;3.10;99.90;;;3.16;97.39;99121.91;4874619;28;24897;-68
2023/12/01 02:42:15;;;;;;;26.90;14.05;;;3.10;99.90;;;3.14;97.53;99127.19;4877223;28;24522;-69
2023/12/01 02:44:37;;;;;;;27.27;12.70;;;3.10;99.90;;;3.20;97.35;99130.25;4893272;28;24441;-69
2023/12/01 02:46:59;;;;;;;26.38;13.00;;;3.10;99.90;;;3.12;97.59;99125.63;4890800;28;24877;-69
2023/12/01 02:49:21;;;;;;;26.05;13.50;;;3.10;99.90;;;3.17;97.37;99121.81;4892306;28;24435;-70
2023/12/01 02:51:43;;;;;;;27.85;14.25;;;3.10;99.90;;;3.18;97.35;99122.63;4892146;28;24475;-70
2023/12/01 02:54:04;;;;;;;26.55;12.85;;;3.10;99.90;;;3.20;97.39;99138.00;4894193;28;24823;-70
2023/12/01 02:56:26;;;;;;;28.27;13.10;;;3.10;99.90;;;3.14;97.87;99137.50;4893690;28;24809;-69
2023/12/01 02:58:48;;;;;;;27.07;13.37;;;3.10;99.90;;;3.19;97.48;99134.63;4892118;28;24518;-68
2023/12/01 03:01:10;;;;;;;26.45;13.30;;;3.10;99.90;;;3.17;97.39;99145.94;4877024;28;24522;-70
2023/12/01 03:03:32;;;;;;;24.50;12.50;;;3.10;99.90;;;3.24;97.77;99147.22;4888132;28;25035;-68
2023/12/01 03:05:54;;;;;;;27.02;13.60;;;3.10;99.90;;;3.22;97.13;99136.97;4885263;28;24450;-70
2023/12/01 03:08:16;;;;;;;27.60;13.43;;;3.20;99.90;;;3.17;97.63;99119.22;4893374;28;24426;-69
2023/12/01 03:10:38;;;;;;;27.40;12.85;;;3.10;99.90;;;3.19;97.88;99115.75;4890411;28;24445;-70
2023/12/01 03:13:00;;;;;;;27.17;13.30;;;3.10;99.90;;;3.17;97.93;99126.97;4894466;28;24427;-68
2023/12/01 03:15:22;;;;;;;25.70;12.70;;;3.10;99.90;;;3.20;97.99;99130.25;4890948;28;24465;-69
2023/12/01 03:17:45;;;;;;;29.80;14.15;;;3.10;99.90;;;3.26;97.99;99125.53;4874766;28;24824;-70
2023/12/01 03:20:10;;;;;;;28.30;13.63;;;3.20;99.90;;;3.20;97.29;99119.97;4880854;28;24457;-68
2023/12/01 03:22:32;;;;;;;25.95;12.90;;;3.20;99.90;;;3.23;97.41;99136.06;4891365;28;24446;-68
2023/12/01 03:24:54;;;;;;;26.90;13.35;;;3.20;99.90;;;3.25;96.99;99130.78;4881783;28;24542;-66
2023/12/01 03:27:16;;;;;;;28.58;13.18;;;3.20;99.90;;;3.27;97.19;99114.31;4889127;28;24797;-69
2023/12/01 03:29:39;;;;;;;27.50;14.85;;;3.20;99.90;;;3.23;97.40;99110.28;4875046;28;24534;-69
2023/12/01 03:32:01;;;;;;;26.10;13.10;;;3.20;99.90;;;3.20;97.44;99120.78;4874435;28;24521;-70
2023/12/01 03:34:23;;;;;;;27.80;13.30;;;3.10;99.90;;;3.25;97.70;99131.63;4891275;28;24435;-69
2023/12/01 03:36:44;;;;;;;27.30;13.10;;;3.10;99.90;;;3.23;97.62;99125.75;4883959;28;24479;-71
2023/12/01 03:39:06;;;;;;;28.13;13.70;;;3.20;99.90;;;3.26;96.90;99128.13;4882876;28;24546;-69
2023/12/01 03:41:28;;;;;;;27.73;12.70;;;3.20;99.90;;;3.24;97.24;99127.38;4877985;28;24522;-69
2023/12/01 03:43:50;;;;;;;28.88;12.77;;;3.20;99.90;;;3.24;97.58;99116.28;4882077;28;24490;-70
2023/12/01 03:46:12;;;;;;;27.65;13.18;;;3.20;99.90;;;3.25;97.19;99117.91;4874157;28;24505;-68
2023/12/01 03:48:34;;;;;;;27.43;12.97;;;3.20;99.90;;;3.22;97.54;99131.81;4890270;28;24945;-69
2023/12/01 03:50:56;;;;;;;29.27;13.88;;;3.20;99.90;;;3.23;97.49;99135.22;4889896;28;24453;-69
2023/12/01 03:53:18;;;;;;;29.03;13.10;;;3.20;99.90;;;3.27;97.34;99131.53;4892266;28;24784;-70
2023/12/01 03:55:40;;;;;;;29.05;13.65;;;3.10;99.90;;;3.25;97.88;99130.78;4890757;28;25006;-66
2023/12/01 03:58:02;;;;;;;26.60;13.18;;;3.20;99.90;;;3.28;97.79;99120.31;4892829;28;24519;-69
2023/12/01 04:00:32;;;;;;;27.92;13.60;;;3.10;99.90;;;3.33;97.69;99113.06;4889711;28;25033;-69
2023/12/01 04:02:54;;;;;;;27.17;13.80;;;3.20;99.90;;;3.32;97.50;99121.75;4893034;28;24438;-69
2023/12/01 04:05:18;;;;;;;27.77;12.90;;;3.20;99.90;;;3.34;97.27;99128.47;4887737;28;24508;-69
2023/12/01 04:07:45;;;;;;;26.58;12.63;;;3.20;99.90;;;3.34;97.02;99125.88;4889297;28;24455;-69
2023/12/01 04:10:10;;;;;;;26.65;13.13;;;3.30;99.90;;;3.33;97.14;99129.38;4884101;28;24540;-70
2023/12/01 04:12:32;;;;;;;27.58;13.23;;;3.20;99.90;;;3.34;96.97;99122.47;4879900;28;24423;-70
2023/12/01 04:14:54;;;;;;;24.88;12.82;;;3.30;99.90;;;3.33;96.82;99120.81;4875039;28;24447;-67
2023/12/01 04:17:16;;;;;;;27.83;12.27;;;3.30;99.90;;;3.27;96.96;99116.06;4880778;28;24515;-70
2023/12/01 04:19:38;;;;;;;24.83;12.70;;;3.20;99.90;;;3.33;97.21;99115.66;4885385;28;24481;-70
2023/12/01 04:22:02;;;;;;;27.45;13.50;;;3.20;99.90;;;3.29;97.36;99119.34;4879494;28;24439;-69
2023/12/01 04:24:24;;;;;;;26.58;13.68;;;3.20;99.90;;;3.31;97.71;99127.81;4881022;28;25043;-69
2023/12/01 04:26:48;;;;;;;28.17;14.77;;;3.20;99.90;;;3.32;97.42;99125.16;4887879;28;24505;-70
2023/12/01 04:29:10;;;;;;;26.80;13.68;;;3.20;99.90;;;3.30;97.25;99132.13;4894799;28;24438;-69
2023/12/01 04:31:32;;;;;;;28.17;13.10;;;3.20;99.90;;;3.30;97.54;99114.09;4886241;28;24423;-70
2023/12/01 04:33:55;;;;;;;24.80;13.02;;;3.20;99.90;;;3.26;97.68;99114.44;4892628;28;24423;-69
2023/12/01 04:36:17;;;;;;;26.30;13.23;;;3.20;99.90;;;3.32;97.51;99121.75;4893611;28;24431;-69
2023/12/01 04:38:39;;;;;;;26.85;13.15;;;3.20;99.90;;;3.30;97.68;99108.94;4890817;28;24558;-69
2023/12/01 04:41:02;;;;;;;26.20;13.05;;;3.20;99.90;;;3.29;97.47;99117.63;4891430;28;24430;-67
2023/12/01 04:43:24;;;;;;;27.45;13.63;;;3.20;99.90;;;3.29;97.71;99120.19;4887213;28;24595;-70
2023/12/01 04:45:46;;;;;;;27.05;14.27;;;3.20;99.90;;;3.29;97.51;99098.75;4891869;28;24457;-70
2023/12/01 04:48:23;;;;;;;27.38;12.93;;;3.20;99.90;;;3.30;96.68;99097.81;4886763;28;24903;-69
2023/12/01 04:50:48;;;;;;;28.38;13.88;;;3.20;99.90;;;3.28;97.34;99092.75;4890820;28;24863;-70
2023/12/01 04:53:13;;;;;;;29.42;13.77;;;3.20;99.90;;;3.29;96.72;99112.47;4886607;28;21277;-68
2023/12/01 04:55:35;;;;;;;28.13;13.80;;;3.20;99.90;;;3.29;97.34;99124.50;4893273;28;25022;-69
2023/12/01 04:57:58;;;;;;;28.80;14.70;;;3.20;99.90;;;3.27;97.11;99116.06;4895438;28;24437;-70
2023/12/01 05:00:25;;;;;;;25.80;13.40;;;3.20;99.90;;;3.27;97.41;99121.22;4885263;28;24990;-70
2023/12/01 05:03:00;;;;;;;26.27;13.63;;;3.20;99.90;;;3.26;97.18;99127.31;4881554;28;24430;-70
2023/12/01 05:05:28;;;;;;;29.93;14.50;;;3.20;99.90;;;3.30;97.06;99121.03;4882128;28;25165;-70
2023/12/01 05:07:57;;;;;;;25.90;13.47;;;3.20;99.90;;;3.29;96.66;99106.47;4875883;28;24508;-70
2023/12/01 05:10:23;;;;;;;26.52;13.15;;;3.20;99.90;;;3.32;96.85;99119.16;4890444;28;24526;-70
2023/12/01 05:12:51;;;;;;;27.05;12.55;;;3.20;99.90;;;3.35;96.60;99121.53;4894653;28;24431;-69
2023/12/01 05:15:16;;;;;;;26.08;13.27;;;3.20;99.90;;;3.30;96.99;99119.25;4883457;28;24816;-70
2023/12/01 05:17:37;;;;;;;28.67;13.57;;;3.20;99.90;;;3.32;96.66;99119.16;4877343;28;24420;-71
2023/12/01 05:19:59;;;;;;;26.23;13.50;;;3.20;99.90;;;3.30;96.72;99128.75;4880772;28;24450;-70
2023/12/01 05:22:22;;;;;;;25.73;13.45;;;3.20;99.90;;;3.28;97.11;99146.88;4874889;28;24898;-69
2023/12/01 05:24:43;;;;;;;25.17;13.03;;;3.20;99.90;;;3.31;97.25;99151.84;4875268;28;25162;-69
2023/12/01 05:27:08;;;;;;;25.05;13.20;;;3.20;99.90;;;3.35;96.57;99160.19;4875441;28;25007;-67
2023/12/01 05:29:29;;;;;;;28.60;14.30;;;3.30;99.90;;;3.30;97.02;99165.66;4890556;28;25117;-68
2023/12/01 05:31:51;;;;;;;27.65;13.00;;;3.30;99.90;;;3.27;96.93;99163.28;4883578;28;24447;-70
2023/12/01 05:34:13;;;;;;;24.23;12.35;;;3.20;99.90;;;3.30;96.64;99157.09;4878522;28;24431;-70
2023/12/01 05:36:35;;;;;;;24.10;13.00;;;3.20;99.90;;;3.32;96.49;99157.84;4888382;28;24881;-70
2023/12/01 05:38:57;;;;;;;23.33;13.85;;;3.20;99.90;;;3.36;96.35;99161.84;4889863;28;24538;-70
2023/12/01 05:41:21;;;;;;;22.03;12.37;;;3.30;99.90;;;3.34;95.81;99168.88;4895128;28;24529;-70
2023/12/01 05:43:42;;;;;;;22.52;12.38;;;3.20;99.90;;;3.30;95.86;99162.25;4890434;28;24442;-70
2023/12/01 05:46:06;;;;;;;22.15;12.55;;;3.20;99.90;;;3.23;95.75;99171.31;4881212;28;24455;-71
2023/12/01 05:48:28;;;;;;;19.77;11.20;;;3.20;99.90;;;3.17;95.96;99172.53;4882283;28;20769;-70
2023/12/01 05:50:51;;;;;;;20.37;12.00;;;3.20;99.90;;;3.17;95.67;99168.19;4883015;28;25064;-70
2023/12/01 05:53:13;;;;;;;17.67;10.60;;;3.10;99.90;;;3.19;95.57;99180.16;4887294;28;24423;-70
2023/12/01 05:55:36;;;;;;;18.52;11.65;;;3.10;99.90;;;3.19;95.10;99190.47;4886581;28;24457;-70
2023/12/01 05:58:02;;;;;;;18.15;10.65;;;3.10;99.90;;;3.17;95.05;99184.59;4892484;28;24427;-70
2023/12/01 06:00:30;;;;;;;17.15;9.90;;;3.10;99.90;;;3.21;94.57;99194.63;4888375;28;24458;-70
2023/12/01 06:02:53;;;;;;;14.73;8.63;;;3.20;99.90;;;3.21;94.07;99198.94;4890363;28;24863;-70
2023/12/01 06:05:17;;;;;;;13.50;8.80;;;3.20;99.90;;;3.25;93.92;99213.28;4874811;28;24427;-70
2023/12/01 06:07:45;;;;;;;12.45;7.93;;;3.20;99.90;;;3.24;93.60;99212.44;4873560;28;24463;-69
2023/12/01 06:10:08;;;;;;;11.93;8.40;;;3.20;99.90;;;3.16;93.45;99206.97;4890783;28;24979;-71
2023/12/01 06:12:30;;;;;;;11.32;7.43;;;3.10;99.90;;;3.15;93.43;99210.47;4887873;28;24512;-68
2023/12/01 06:14:52;;;;;;;10.80;7.47;;;3.10;99.90;;;3.17;93.03;99212.00;4892308;28;24442;-68
2023/12/01 06:17:14;;;;;;;10.00;6.93;;;3.10;99.90;;;3.13;92.67;99214.91;4886108;28;25846;-70
2023/12/01 06:19:36;;;;;;;10.98;6.97;;;3.10;99.90;;;3.16;93.33;99209.53;4899879;28;24475;-71
2023/12/01 06:21:58;;;;;;;9.77;6.78;;;3.10;99.90;;;3.20;93.19;99195.53;4877159;28;24471;-69
2023/12/01 06:24:21;;;;;;;10.10;6.88;;;3.10;99.90;;;3.25;93.36;99198.66;4888543;28;24431;-70
2023/12/01 06:26:43;;;;;;;9.30;6.80;;;3.10;99.90;;;3.27;92.79;99198.53;4885321;28;24561;-69
2023/12/01 06:29:06;;;;;;;10.32;6.80;;;3.20;99.90;;;3.27;92.70;99201.13;4890381;28;24439;-70
2023/12/01 06:31:28;;;;;;;11.10;6.70;;;3.20;99.90;;;3.27;93.05;99216.56;4892394;28;24496;-70
2023/12/01 06:33:50;;;;;;;11.07;7.03;;;3.20;99.90;;;3.27;92.81;99211.41;4893604;28;24430;-68
2023/12/01 06:36:12;;;;;;;11.02;7.72;;;3.20;99.90;;;3.25;93.08;99216.69;4891472;28;24820;-70
2023/12/01 06:38:34;;;;;;;11.77;7.18;;;3.20;99.90;;;3.30;92.67;99208.66;4894327;28;24430;-70
2023/12/01 06:40:56;;;;;;;9.20;6.70;;;3.20;99.90;;;3.29;93.30;99210.41;4890101;28;24430;-68
2023/12/01 06:43:18;;;;;;;9.82;6.97;;;3.20;99.90;;;3.24;93.30;99220.19;4878900;28;20827;-70
2023/12/01 06:45:41;;;;;;;9.53;6.90;;;3.20;99.90;;;3.18;93.39;99230.88;4890607;28;24472;-68
2023/12/01 06:48:05;;;;;;;9.38;6.82;;;3.20;99.90;;;3.17;93.31;99231.00;4892508;28;24990;-70
2023/12/01 06:50:27;;;;;;;9.95;6.25;;;3.10;99.90;;;3.22;92.51;99239.22;4885583;28;20773;-70
2023/12/01 06:52:55;;;;;;;10.18;6.40;;;3.20;99.90;;;3.19;92.30;99247.19;4889437;28;24429;-70
2023/12/01 06:55:17;;;;;;;9.95;6.68;;;3.20;99.90;;;3.22;92.29;99242.63;4873662;28;24423;-70
2023/12/01 06:57:45;;;;;;;7.82;5.60;;;3.20;99.90;;;3.28;92.28;99236.28;4882029;28;24453;-70
2023/12/01 07:00:10;;;;;;;9.00;6.20;;;3.20;99.90;;;3.28;91.90;99225.97;4893019;28;24434;-69
2023/12/01 07:02:33;;;;;;;9.10;5.80;;;3.20;99.90;;;3.28;91.40;99237.09;4890157;28;24453;-69
2023/12/01 07:04:55;;;;;;;8.07;5.95;;;3.20;99.90;;;3.24;91.76;99237.41;4881667;28;20791;-68
2023/12/01 07:07:17;;;;;;;9.30;6.47;;;3.20;99.90;;;3.32;91.78;99240.31;4878903;28;24533;-68
2023/12/01 07:09:47;;;;;;;9.68;6.68;;;3.20;99.90;;;3.29;91.50;99243.09;4890449;28;24554;-70
2023/12/01 07:12:21;;;;;;;10.40;6.15;;;3.20;99.90;;;3.31;91.64;99242.06;4882645;28;24857;-70
2023/12/01 07:14:43;;;;;;;7.53;6.13;;;3.20;99.90;;;3.28;91.77;99242.25;4877601;28;24995;-70
2023/12/01 07:17:07;;;;;;;8.45;5.97;;;3.20;99.90;;;3.32;91.29;99242.91;4885211;28;20878;-69
2023/12/01 07:19:29;;;;;;;7.78;5.95;;;3.20;99.90;;;3.36;91.06;99245.19;4886552;28;24816;-70
2023/12/01 07:21:51;;;;;;;8.60;6.20;;;3.30;99.90;;;3.30;91.50;99257.63;4881812;28;24458;-71
2023/12/01 07:24:13;;;;;;;7.85;5.80;;;3.20;99.90;;;3.29;90.37;99251.66;4881115;28;24447;-70
2023/12/01 07:26:35;;;;;;;9.75;5.53;;;3.20;99.90;;;3.32;90.64;99258.38;4884207;28;24443;-70
2023/12/01 07:28:57;;;;;;;9.05;6.32;;;3.30;99.90;;;3.32;90.99;99248.06;4890534;28;24446;-72
2023/12/01 07:31:19;;;;;;;11.65;6.60;;;3.20;99.90;;;3.33;91.30;99237.63;4884640;28;24528;-69
2023/12/01 07:33:41;;;;;;;8.80;6.20;;;3.20;99.90;;;3.29;90.64;99232.78;4896491;28;24442;-70
2023/12/01 07:36:04;;;;;;;8.63;6.30;;;3.30;99.90;;;3.32;91.36;99245.47;4883410;28;24846;-70
2023/12/01 07:38:30;;;;;;;9.37;6.17;;;3.20;99.90;;;3.31;91.31;99252.38;4886842;28;24427;-71
2023/12/01 07:40:52;;;;;;;11.13;6.85;;;3.20;99.90;;;3.33;91.38;99245.38;4883995;28;24462;-71
2023/12/01 07:43:14;;;;;;;8.77;6.53;;;3.30;99.90;;;3.38;90.35;99247.66;4889511;28;24534;-69
2023/12/01 07:45:36;;;;;;;9.75;6.65;;;3.30;99.90;;;3.40;90.17;99256.94;4875262;28;25061;-69
2023/12/01 07:47:58;;;;;;;12.93;7.50;;;3.30;99.90;;;3.34;90.32;99266.81;4881205;28;24619;-71
2023/12/01 07:50:22;;;;;;;12.30;6.90;;;3.30;99.90;;;3.36;90.44;99259.81;4877075;28;24471;-72
2023/12/01 07:52:48;;;;;;;11.10;7.00;;;3.30;99.90;;;3.40;89.99;99250.97;4876499;28;24449;-69
2023/12/01 07:55:11;;;;;;;10.60;7.10;;;3.30;99.90;;;3.42;90.12;99262.00;4882817;28;24524;-69
2023/12/01 07:57:32;;;;;;;13.13;8.30;;;3.30;99.90;;;3.38;90.32;99263.97;4899191;28;24525;-71
2023/12/01 07:59:55;;;;;;;12.15;7.40;;;3.30;99.90;;;3.42;90.63;99269.72;4878191;28;24534;-70
2023/12/01 08:02:17;;;;;;;10.60;6.80;;;3.30;99.90;;;3.41;89.65;99270.66;4883756;28;24496;-70
2023/12/01 08:04:40;;;;;;;13.65;8.35;;;3.30;99.90;;;3.40;90.49;99276.75;4883847;28;24479;-70
2023/12/01 08:07:03;;;;;;;12.18;7.72;;;3.30;99.90;;;3.42;90.30;99264.56;4879592;28;24455;-70
2023/12/01 08:09:25;;;;;;;12.10;7.93;;;3.30;99.90;;;3.42;90.37;99255.09;4882918;28;24980;-71
2023/12/01 08:11:46;;;;;;;11.90;8.27;;;3.30;99.90;;;3.38;90.13;99257.97;4889408;28;24434;-71
2023/12/01 08:14:10;;;;;;;13.05;7.70;;;3.30;99.90;;;3.42;90.33;99260.25;4881665;28;24475;-70
2023/12/01 08:16:32;;;;;;;13.55;9.05;;;3.30;99.90;;;3.45;89.54;99261.81;4874234;28;24496;-70
2023/12/01 08:18:54;;;;;;;12.48;7.43;;;3.30;99.90;;;3.47;89.18;99268.50;4884033;28;25040;-70
2023/12/01 08:21:16;;;;;;;11.75;8.50;;;3.40;99.90;;;3.33;90.21;99271.16;4874579;28;24424;-67
2023/12/01 08:23:38;;;;;;;13.50;8.55;;;3.30;99.90;;;3.36;90.32;99280.44;4896378;28;24442;-68
2023/12/01 08:26:00;;;;;;;14.50;8.52;;;3.30;99.90;;;3.37;89.89;99282.91;4895830;28;24496;-68
2023/12/01 08:28:22;;;;;;;12.07;7.85;;;3.30;99.90;;;3.39;89.23;99282.81;4886372;28;24546;-70
2023/12/01 08:30:44;;;;;;;13.68;8.50;;;3.30;99.90;;;3.44;89.48;99278.19;4880157;28;24430;-68
2023/12/01 08:33:10;;;;;;;12.77;8.60;;;3.30;99.90;;;3.41;89.65;99268.09;4895219;28;20761;-70
2023/12/01 08:35:32;;;;;;;11.90;8.10;;;3.30;99.90;;;3.45;88.85;99270.34;4895819;28;24453;-67
2023/12/01 08:37:54;;;;;;;13.77;9.20;;;3.40;99.90;;;3.36;89.63;99272.72;4887300;28;24453;-67
2023/12/01 08:40:16;;;;;;;12.98;8.60;;;3.30;99.90;;;3.42;88.87;99282.63;4878292;28;24477;-67
2023/12/01 08:42:42;;;;;;;13.63;9.00;;;3.40;99.90;;;3.36;89.43;99272.72;4895339;28;20777;-67
2023/12/01 08:45:05;;;;;;;13.48;9.23;;;3.30;99.90;;;3.42;89.37;99278.31;4894663;28;24485;-68
2023/12/01 08:47:27;;;;;;;14.98;8.57;;;3.40;99.90;;;3.39;89.77;99272.50;4883527;28;25015;-69
2023/12/01 08:49:54;;;;;;;13.45;8.70;;;3.40;99.90;;;3.40;89.63;99275.00;4883620;28;24427;-69
2023/12/01 08:52:17;;;;;;;13.70;8.68;;;3.30;99.90;;;3.44;89.52;99275.63;4887243;28;24491;-69
2023/12/01 08:54:39;;;;;;;12.65;8.30;;;3.30;99.90;;;3.47;88.95;99291.72;4887496;28;24530;-68
2023/12/01 08:57:01;;;;;;;11.80;7.75;;;3.40;99.90;;;3.43;89.09;99295.41;4886628;28;24465;-68
2023/12/01 08:59:23;;;;;;;13.95;9.77;;;3.40;99.90;;;3.47;89.55;99286.56;4893274;28;24843;-68
2023/12/01 09:01:45;;;;;;;13.77;9.00;;;3.40;99.90;;;3.45;88.93;99296.13;4887312;28;24992;-68
2023/12/01 09:04:07;;;;;;;14.23;8.95;;;3.40;99.90;;;3.41;89.28;99309.34;4892853;28;24455;-68
2023/12/01 09:06:29;;;;;;;13.20;8.90;;;3.40;99.90;;;3.43;89.13;99312.66;4875542;28;24442;-68
2023/12/01 09:08:51;;;;;;;12.98;9.15;;;3.40;99.90;;;3.47;88.83;99306.38;4877228;28;24447;-68
2023/12/01 09:11:14;;;;;;;13.55;8.90;;;3.30;99.90;;;3.53;89.35;99308.56;4889726;28;24434;-70
2023/12/01 09:13:36;;;;;;;12.98;8.95;;;3.50;99.90;;;3.41;89.52;99299.84;4878280;28;20785;-69
2023/12/01 09:16:00;;;;;;;13.47;9.00;;;3.40;99.90;;;3.47;88.77;99296.06;4885042;28;24496;-68
2023/12/01 09:18:21;;;;;;;12.10;8.00;;;3.50;99.90;;;3.38;88.82;99287.16;4887273;28;24555;-68
2023/12/01 09:20:44;;;;;;;13.07;8.65;;;3.40;99.90;;;3.50;89.09;99286.38;4882970;28;25094;-69
2023/12/01 09:23:06;;;;;;;12.93;8.52;;;3.40;99.90;;;3.57;89.24;99279.06;4884583;28;25124;-69
2023/12/01 09:25:28;;;;;;;12.77;8.20;;;3.40;99.90;;;3.71;88.69;99274.66;4881803;28;25144;-70
2023/12/01 09:27:50;;;;;;;11.95;8.50;;;3.50;99.90;;;3.68;88.38;99277.44;4887560;28;24496;-71
2023/12/01 09:30:16;;;;;;;12.27;8.32;;;3.60;99.90;;;3.72;88.63;99286.63;4875790;28;24443;-68
2023/12/01 09:32:40;;;;;;;13.00;9.35;;;3.60;99.90;;;3.76;88.01;99287.25;4884274;28;24812;-69
2023/12/01 09:35:04;;;;;;;12.43;9.15;;;3.60;99.90;;;3.76;87.97;99279.53;4894500;28;24430;-68
2023/12/01 09:37:26;;;;;;;11.63;8.50;;;3.70;99.90;;;3.71;88.08;99290.13;4888417;28;24537;-68
2023/12/01 09:39:49;;;;;;;11.30;7.70;;;3.70;99.90;;;3.66;88.11;99287.00;4889962;28;24466;-69
2023/12/01 09:42:11;;;;;;;13.88;8.38;;;3.60;99.90;;;3.68;87.38;99287.78;4877950;28;24441;-68
2023/12/01 09:44:35;;;;;;;11.80;7.07;;;3.60;99.90;;;3.70;87.98;99303.13;4885438;28;25055;-68
2023/12/01 09:46:58;;;;;;;10.90;7.30;;;3.60;99.90;;;3.76;87.56;99311.31;4885784;28;24482;-66
2023/12/01 09:49:23;;;;;;;13.40;8.90;;;3.70;99.90;;;3.71;87.46;99317.66;4878970;28;24435;-69
2023/12/01 09:51:46;;;;;;;13.38;8.45;;;3.70;99.90;;;3.72;87.50;99316.75;4886096;28;24520;-69
2023/12/01 09:54:08;;;;;;;12.45;8.45;;;3.60;99.90;;;3.68;88.27;99308.41;4885697;28;24520;-71
2023/12/01 09:56:32;;;;;;;11.32;7.55;;;3.60;99.90;;;3.67;87.80;99321.38;4893909;28;24522;-69
2023/12/01 09:58:56;;;;;;;13.70;9.23;;;3.60;99.90;;;3.67;87.27;99326.53;4881514;28;24509;-70
2023/12/01 10:01:19;;;;;;;16.17;8.43;;;3.60;99.90;;;3.67;87.64;99321.38;4883569;28;25037;-69
2023/12/01 10:03:41;;;;;;;13.02;9.10;;;3.60;99.90;;;3.72;87.60;99319.34;4893829;28;24776;-70